createdAt,value
2019-02-14T00:02:06.335Z,65.58
2019-02-14T00:04:33.184Z,65.94
2019-02-14T00:06:59.924Z,65.43
2019-02-14T00:09:26.677Z,64.81
2019-02-14T00:11:54.444Z,64.20
2019-02-14T00:14:21.302Z,64.61
2019-02-14T00:16:48.166Z,65.87
2019-02-14T00:19:15.031Z,66.74
2019-02-14T00:21:41.779Z,67.04
2019-02-14T00:24:08.563Z,67.07
2019-02-14T00:26:35.549Z,66.87
2019-02-14T00:29:02.519Z,67.28
2019-02-14T00:31:29.258Z,66.45
2019-02-14T00:33:56.032Z,66.25
2019-02-14T00:36:22.768Z,66.49
2019-02-14T00:38:49.634Z,66.77
2019-02-14T00:41:16.498Z,65.86
2019-02-14T00:43:43.257Z,68.08
2019-02-14T00:46:10.213Z,69.21
2019-02-14T00:48:37.023Z,70.29
2019-02-14T00:51:03.909Z,71.46
2019-02-14T00:53:30.786Z,71.92
2019-02-14T00:55:57.649Z,71.20
2019-02-14T00:58:24.523Z,70.13
2019-02-14T01:00:52.297Z,69.07
2019-02-14T01:03:19.075Z,69.66
2019-02-14T01:05:45.887Z,69.09
2019-02-14T01:08:12.628Z,68.76
2019-02-14T01:10:39.378Z,68.00
2019-02-14T01:13:06.128Z,67.60
2019-02-14T01:15:36.188Z,68.66
2019-02-14T01:18:03.075Z,69.94
2019-02-14T01:20:33.524Z,71.26
2019-02-14T01:23:00.262Z,71.46
2019-02-14T01:25:27.148Z,70.86
2019-02-14T01:27:55.308Z,69.62
2019-02-14T01:30:22.107Z,69.04
2019-02-14T01:32:49.343Z,68.54
2019-02-14T01:35:16.212Z,68.14
2019-02-14T01:37:42.947Z,68.55
2019-02-14T01:40:09.967Z,68.46
2019-02-14T01:42:36.920Z,68.07
2019-02-14T01:45:04.753Z,68.06
2019-02-14T01:47:31.726Z,67.85
2019-02-14T01:49:58.572Z,67.96
2019-02-14T01:52:30.438Z,68.23
2019-02-14T01:54:59.421Z,67.53
2019-02-14T01:57:26.385Z,67.58
2019-02-14T01:59:53.164Z,67.08
2019-02-14T02:02:19.969Z,67.53
2019-02-14T02:04:46.797Z,67.22
2019-02-14T02:07:14.634Z,66.17
2019-02-14T02:09:41.643Z,66.89
2019-02-14T02:12:08.502Z,67.54
2019-02-14T02:14:35.241Z,67.63
2019-02-14T02:17:01.988Z,68.17
2019-02-14T02:19:28.918Z,68.52
2019-02-14T02:21:55.795Z,68.20
2019-02-14T02:24:22.534Z,68.14
2019-02-14T02:26:49.359Z,67.62
2019-02-14T02:29:16.104Z,67.56
2019-02-14T02:31:42.843Z,67.58
2019-02-14T02:34:09.931Z,67.51
2019-02-14T02:36:36.813Z,66.37
2019-02-14T02:39:05.788Z,65.70
2019-02-14T02:41:33.431Z,64.66
2019-02-14T02:44:00.389Z,65.17
2019-02-14T02:46:27.301Z,65.38
2019-02-14T02:48:53.999Z,65.60
2019-02-14T02:51:20.738Z,66.85
2019-02-14T02:53:47.543Z,66.82
2019-02-14T02:56:14.314Z,66.83
2019-02-14T02:58:41.150Z,67.26
2019-02-14T03:01:07.995Z,65.87
2019-02-14T03:03:34.839Z,65.00
2019-02-14T03:06:10.212Z,65.51
2019-02-14T03:08:30.468Z,66.19
2019-02-14T03:10:57.309Z,66.07
2019-02-14T03:13:24.199Z,64.67
2019-02-14T03:15:52.373Z,63.83
2019-02-14T03:18:19.307Z,64.24
2019-02-14T03:20:46.078Z,65.13
2019-02-14T03:23:14.029Z,66.03
2019-02-14T03:25:40.873Z,67.06
2019-02-14T03:28:07.606Z,67.32
2019-02-14T03:30:34.602Z,67.48
2019-02-14T03:33:01.436Z,66.70
2019-02-14T03:35:28.170Z,66.62
2019-02-14T03:37:55.050Z,66.62
2019-02-14T03:40:21.880Z,67.26
2019-02-14T03:42:48.641Z,67.27
2019-02-14T03:45:15.740Z,67.39
2019-02-14T03:47:42.503Z,68.33
2019-02-14T03:50:10.538Z,67.77
2019-02-14T03:52:37.422Z,66.36
2019-02-14T03:55:04.361Z,65.90
2019-02-14T03:57:31.215Z,65.46
2019-02-14T03:59:57.984Z,66.50
2019-02-14T04:02:24.730Z,66.62
2019-02-14T04:04:51.485Z,65.94
2019-02-14T04:07:18.382Z,66.47
2019-02-14T04:09:45.124Z,66.44
2019-02-14T04:12:11.901Z,65.97
2019-02-14T04:14:38.652Z,65.97
2019-02-14T04:17:05.501Z,66.12
2019-02-14T04:19:32.373Z,66.06
2019-02-14T04:21:59.166Z,66.02
2019-02-14T04:24:26.010Z,65.39
2019-02-14T04:26:52.738Z,65.37
2019-02-14T04:29:19.613Z,65.83
2019-02-14T04:31:46.340Z,65.81
2019-02-14T04:34:13.194Z,65.64
2019-02-14T04:36:40.016Z,65.87
2019-02-14T04:39:07.403Z,65.40
2019-02-14T04:41:34.248Z,65.04
2019-02-14T04:44:01.029Z,66.17
2019-02-14T04:46:27.773Z,66.42
2019-02-14T04:48:54.505Z,65.67
2019-02-14T04:51:21.699Z,64.92
2019-02-14T04:53:48.655Z,65.01
2019-02-14T04:56:15.414Z,66.08
2019-02-14T04:58:42.381Z,67.30
2019-02-14T05:01:09.220Z,67.34
2019-02-14T05:03:35.995Z,68.03
2019-02-14T05:06:02.866Z,68.67
2019-02-14T05:08:29.705Z,67.65
2019-02-14T05:10:56.445Z,66.65
2019-02-14T05:13:23.193Z,68.79
2019-02-14T05:15:50.047Z,69.70
2019-02-14T05:18:17.893Z,70.69
2019-02-14T05:20:44.687Z,71.81
2019-02-14T05:23:11.533Z,72.52
2019-02-14T05:25:38.538Z,72.13
2019-02-14T05:28:06.589Z,71.16
2019-02-14T05:30:33.499Z,70.37
2019-02-14T05:33:02.389Z,69.45
2019-02-14T05:35:31.791Z,68.92
2019-02-14T05:37:58.749Z,69.36
2019-02-14T05:40:25.506Z,69.71
2019-02-14T05:42:52.605Z,70.25
2019-02-14T05:45:19.338Z,69.16
2019-02-14T05:47:47.216Z,67.77
2019-02-14T05:50:14.036Z,67.82
2019-02-14T05:52:40.820Z,67.51
2019-02-14T05:55:08.690Z,67.79
2019-02-14T05:57:35.588Z,67.64
2019-02-14T06:00:04.463Z,68.42
2019-02-14T06:02:32.235Z,68.34
2019-02-14T06:04:59.465Z,67.87
2019-02-14T06:07:26.232Z,67.63
2019-02-14T06:09:53.105Z,67.52
2019-02-14T06:12:20.162Z,67.58
2019-02-14T06:14:47.114Z,67.40
2019-02-14T06:17:14.080Z,67.69
2019-02-14T06:19:41.089Z,67.50
2019-02-14T06:22:07.840Z,67.77
2019-02-14T06:24:34.801Z,67.96
2019-02-14T06:27:01.672Z,67.72
2019-02-14T06:29:28.394Z,67.44
2019-02-14T06:31:55.263Z,67.60
2019-02-14T06:34:22.273Z,68.94
2019-02-14T06:36:49.235Z,69.21
2019-02-14T06:39:16.124Z,68.97
2019-02-14T06:41:43.012Z,69.95
2019-02-14T06:44:09.774Z,72.00
2019-02-14T06:46:36.799Z,73.06
2019-02-14T06:49:03.655Z,73.34
2019-02-14T06:51:30.431Z,73.37
2019-02-14T06:53:57.413Z,72.74
2019-02-14T06:56:24.413Z,71.06
2019-02-14T06:58:51.317Z,69.63
2019-02-14T07:01:18.077Z,69.28
2019-02-14T07:03:44.975Z,69.78
2019-02-14T07:06:11.921Z,69.90
2019-02-14T07:08:38.684Z,69.95
2019-02-14T07:11:05.573Z,69.63
2019-02-14T07:13:32.317Z,69.09
2019-02-14T07:15:59.177Z,68.16
2019-02-14T07:18:25.993Z,67.20
2019-02-14T07:20:52.732Z,66.91
2019-02-14T07:23:19.604Z,66.42
2019-02-14T07:25:46.346Z,65.78
2019-02-14T07:28:13.140Z,66.32
2019-02-14T07:30:39.981Z,66.66
2019-02-14T07:33:06.932Z,65.77
2019-02-14T07:35:33.893Z,64.58
2019-02-14T07:38:00.647Z,64.63
2019-02-14T07:40:27.455Z,65.29
2019-02-14T07:42:54.318Z,65.09
2019-02-14T07:45:21.073Z,62.13
2019-02-14T07:47:47.953Z,60.40
2019-02-14T07:50:14.709Z,60.02
2019-02-14T07:52:41.486Z,60.39
2019-02-14T07:55:08.576Z,59.56
2019-02-14T07:57:35.654Z,59.22
2019-02-14T08:00:03.059Z,58.77
2019-02-14T08:02:30.361Z,59.03
2019-02-14T08:04:57.316Z,59.17
2019-02-14T08:07:24.092Z,58.66
2019-02-14T08:09:50.896Z,59.16
2019-02-14T08:12:17.757Z,58.87
2019-02-14T08:14:44.734Z,57.99
2019-02-14T08:17:11.739Z,58.30
2019-02-14T08:19:38.472Z,57.87
2019-02-14T08:22:05.426Z,57.81
2019-02-14T08:24:32.205Z,56.60
2019-02-14T08:26:59.115Z,56.86
2019-02-14T08:29:25.977Z,58.51
2019-02-14T08:31:52.877Z,56.69
2019-02-14T08:34:19.633Z,53.40
2019-02-14T08:36:46.604Z,52.81
2019-02-14T08:39:13.358Z,50.90
2019-02-14T08:41:40.312Z,49.71
2019-02-14T08:44:07.154Z,48.92
2019-02-14T08:46:33.945Z,49.09
2019-02-14T08:49:00.899Z,46.81
2019-02-14T08:51:27.755Z,44.71
2019-02-14T08:53:54.573Z,44.17
2019-02-14T08:56:21.428Z,44.92
2019-02-14T08:58:48.309Z,44.35
2019-02-14T09:01:15.172Z,45.01
2019-02-14T09:03:41.909Z,46.33
2019-02-14T09:06:08.840Z,45.87
2019-02-14T09:08:35.644Z,45.58
2019-02-14T09:11:02.518Z,46.21
2019-02-14T09:13:29.269Z,46.74
2019-02-14T09:15:56.206Z,46.32
2019-02-14T09:18:23.067Z,45.72
2019-02-14T09:20:51.881Z,43.47
2019-02-14T09:23:20.282Z,42.73
2019-02-14T09:25:47.017Z,41.45
2019-02-14T09:28:13.861Z,41.71
2019-02-14T09:30:40.664Z,41.09
2019-02-14T09:33:07.402Z,43.15
2019-02-14T09:35:34.147Z,42.38
2019-02-14T09:38:03.514Z,40.15
2019-02-14T09:40:29.674Z,37.96
2019-02-14T09:42:56.435Z,37.36
2019-02-14T09:45:23.224Z,38.42
2019-02-14T09:47:49.952Z,37.08
2019-02-14T09:50:16.708Z,37.75
2019-02-14T09:52:43.723Z,39.11
2019-02-14T09:55:10.466Z,38.76
2019-02-14T09:57:37.448Z,37.00
2019-02-14T10:00:06.040Z,39.45
2019-02-14T10:02:32.951Z,42.28
2019-02-14T10:04:59.705Z,43.67
2019-02-14T10:07:26.634Z,46.05
2019-02-14T10:09:53.585Z,45.71
2019-02-14T10:12:20.546Z,42.61
2019-02-14T10:14:47.322Z,42.19
2019-02-14T10:17:22.058Z,43.47
2019-02-14T10:19:42.814Z,44.38
2019-02-14T10:22:10.985Z,41.93
2019-02-14T10:24:37.715Z,38.44
2019-02-14T10:27:04.448Z,37.93
2019-02-14T10:29:31.312Z,37.48
2019-02-14T10:31:58.042Z,36.17
2019-02-14T10:34:24.973Z,35.52
2019-02-14T10:36:52.588Z,32.33
2019-02-14T10:39:19.585Z,28.44
2019-02-14T10:41:46.387Z,25.67
2019-02-14T10:44:13.416Z,24.16
2019-02-14T10:46:40.307Z,23.57
2019-02-14T10:49:08.421Z,21.59
2019-02-14T10:51:35.423Z,22.73
2019-02-14T10:54:04.370Z,22.21
2019-02-14T10:56:31.109Z,19.83
2019-02-14T10:58:59.791Z,21.19
2019-02-14T11:01:26.673Z,21.55
2019-02-14T11:03:53.418Z,21.02
2019-02-14T11:06:20.211Z,26.86
2019-02-14T11:08:47.066Z,29.22
2019-02-14T11:11:13.831Z,30.84
2019-02-14T11:13:40.648Z,31.32
2019-02-14T11:16:09.635Z,29.30
2019-02-14T11:18:43.972Z,25.21
2019-02-14T11:21:05.295Z,28.53
2019-02-14T11:23:32.250Z,26.89
2019-02-14T11:25:59.222Z,26.58
2019-02-14T11:28:26.045Z,24.26
2019-02-14T11:30:52.895Z,26.39
2019-02-14T11:33:19.774Z,28.08
2019-02-14T11:35:46.726Z,31.02
2019-02-14T11:38:13.521Z,30.17
2019-02-14T11:40:40.261Z,31.53
2019-02-14T11:43:07.387Z,32.45
2019-02-14T11:45:34.133Z,32.96
2019-02-14T11:48:01.103Z,24.74
2019-02-14T11:50:27.916Z,24.02
2019-02-14T11:52:54.769Z,25.65
2019-02-14T11:55:22.724Z,21.21
2019-02-14T11:57:49.544Z,21.71
2019-02-14T12:00:19.533Z,25.17
2019-02-14T12:02:54.729Z,28.35
2019-02-14T12:05:15.099Z,26.32
2019-02-14T12:07:41.964Z,28.97
2019-02-14T12:10:13.361Z,30.38
2019-02-14T12:12:37.941Z,26.11
2019-02-14T12:15:04.977Z,24.52
2019-02-14T12:17:31.828Z,23.35
2019-02-14T12:19:58.619Z,29.74
2019-02-14T12:22:25.581Z,32.29
2019-02-14T12:24:52.492Z,32.60
2019-02-14T12:27:19.266Z,35.13
2019-02-14T12:29:46.009Z,33.97
2019-02-14T12:32:12.782Z,33.06
2019-02-14T12:34:39.691Z,33.40
2019-02-14T12:37:06.485Z,32.99
2019-02-14T12:39:33.471Z,28.30
2019-02-14T12:42:00.476Z,28.79
2019-02-14T12:44:27.244Z,31.83
2019-02-14T12:46:54.097Z,32.01
2019-02-14T12:49:20.865Z,34.05
2019-02-14T12:51:47.830Z,33.80
2019-02-14T12:54:14.587Z,32.25
2019-02-14T12:56:41.344Z,34.21
2019-02-14T12:59:08.201Z,33.26
2019-02-14T13:01:35.193Z,32.01
2019-02-14T13:04:02.079Z,31.35
2019-02-14T13:06:29.048Z,31.26
2019-02-14T13:08:55.773Z,31.77
2019-02-14T13:11:22.678Z,31.12
2019-02-14T13:13:50.683Z,30.09
2019-02-14T13:16:18.201Z,30.48
2019-02-14T13:18:45.120Z,30.53
2019-02-14T13:21:11.874Z,30.45
2019-02-14T13:23:38.635Z,30.68
2019-02-14T13:26:05.511Z,29.67
2019-02-14T13:28:32.381Z,28.31
2019-02-14T13:30:59.339Z,26.17
2019-02-14T13:33:26.319Z,23.54
2019-02-14T13:35:53.175Z,23.02
2019-02-14T13:38:19.925Z,24.33
2019-02-14T13:40:46.937Z,28.75
2019-02-14T13:43:13.825Z,34.20
2019-02-14T13:45:40.599Z,33.63
2019-02-14T13:48:11.357Z,27.93
2019-02-14T13:50:38.354Z,27.98
2019-02-14T13:53:05.172Z,25.86
2019-02-14T13:55:33.871Z,22.60
2019-02-14T13:58:00.893Z,20.44
2019-02-14T14:00:27.746Z,18.95
2019-02-14T14:02:54.838Z,17.40
2019-02-14T14:05:28.408Z,18.50
2019-02-14T14:07:55.861Z,17.87
2019-02-14T14:10:22.766Z,18.24
2019-02-14T14:12:49.736Z,18.16
2019-02-14T14:15:16.725Z,19.04
2019-02-14T14:17:43.537Z,18.36
2019-02-14T14:20:10.435Z,18.33
2019-02-14T14:22:37.460Z,20.27
2019-02-14T14:25:07.216Z,21.94
2019-02-14T14:27:33.988Z,24.04
2019-02-14T14:30:03.045Z,23.91
2019-02-14T14:32:31.611Z,22.74
2019-02-14T14:34:58.489Z,28.04
2019-02-14T14:37:25.257Z,29.33
2019-02-14T14:40:01.423Z,28.11
2019-02-14T14:42:55.472Z,28.24
2019-02-14T14:45:33.028Z,24.08
2019-02-14T14:48:00.204Z,22.67
2019-02-14T14:50:26.947Z,20.58
2019-02-14T14:52:53.820Z,20.74
2019-02-14T14:55:20.615Z,21.04
2019-02-14T14:57:47.476Z,19.81
2019-02-14T15:00:14.222Z,19.60
2019-02-14T15:02:41.124Z,23.68
2019-02-14T15:05:07.858Z,21.98
2019-02-14T15:07:35.041Z,21.64
2019-02-14T15:10:02.037Z,23.78
2019-02-14T15:12:30.675Z,21.82
2019-02-14T15:14:59.884Z,25.58
2019-02-14T15:17:28.013Z,28.96
2019-02-14T15:19:55.000Z,26.75
2019-02-14T15:22:22.003Z,26.49
2019-02-14T15:24:48.789Z,27.51
2019-02-14T15:27:15.640Z,27.15
2019-02-14T15:29:42.388Z,30.70
2019-02-14T15:32:09.260Z,29.67
2019-02-14T15:34:36.012Z,28.76
2019-02-14T15:37:03.352Z,28.49
2019-02-14T15:39:30.168Z,28.42
2019-02-14T15:41:56.969Z,27.18
2019-02-14T15:44:23.720Z,27.05
2019-02-14T15:46:56.874Z,26.65
2019-02-14T15:49:29.911Z,27.89
2019-02-14T15:51:59.331Z,30.33
2019-02-14T15:54:26.131Z,31.82
2019-02-14T15:56:53.651Z,34.37
2019-02-14T15:59:23.764Z,36.55
2019-02-14T16:01:50.714Z,39.22
2019-02-14T16:04:17.716Z,39.84
2019-02-14T16:06:44.483Z,40.72
2019-02-14T16:09:12.283Z,39.86
2019-02-14T16:11:40.085Z,38.85
2019-02-14T16:14:07.081Z,37.04
2019-02-14T16:16:33.941Z,37.21
2019-02-14T16:19:00.683Z,39.06
2019-02-14T16:21:29.383Z,41.59
2019-02-14T16:23:56.499Z,43.10
2019-02-14T16:26:23.385Z,44.02
2019-02-14T16:28:51.742Z,44.84
2019-02-14T16:31:18.467Z,44.61
2019-02-14T16:33:45.305Z,43.72
2019-02-14T16:36:12.340Z,42.79
2019-02-14T16:38:39.117Z,42.12
2019-02-14T16:41:05.960Z,41.91
2019-02-14T16:43:32.885Z,41.95
2019-02-14T16:45:59.732Z,42.10
2019-02-14T16:48:26.573Z,43.13
2019-02-14T16:50:53.379Z,43.72
2019-02-14T16:53:20.191Z,45.15
2019-02-14T16:55:47.822Z,46.14
2019-02-14T16:58:14.713Z,47.05
2019-02-14T17:00:41.571Z,46.56
2019-02-14T17:03:08.321Z,47.44
2019-02-14T17:05:35.123Z,47.20
2019-02-14T17:08:01.985Z,48.08
2019-02-14T17:10:36.812Z,49.23
2019-02-14T17:13:03.454Z,49.97
2019-02-14T17:15:31.806Z,51.51
2019-02-14T17:17:58.783Z,52.36
2019-02-14T17:20:25.812Z,52.51
2019-02-14T17:22:52.798Z,53.00
2019-02-14T17:25:19.706Z,52.34
2019-02-14T17:27:46.531Z,51.39
2019-02-14T17:30:13.519Z,51.11
2019-02-14T17:32:40.297Z,52.38
2019-02-14T17:35:07.096Z,52.80
2019-02-14T17:37:33.945Z,53.53
2019-02-14T17:40:00.708Z,53.38
2019-02-14T17:42:27.462Z,52.76
2019-02-14T17:44:54.472Z,51.86
2019-02-14T17:47:21.400Z,52.09
2019-02-14T17:49:48.398Z,53.28
2019-02-14T17:52:15.872Z,53.11
2019-02-14T17:54:44.671Z,52.30
2019-02-14T17:57:11.541Z,52.61
2019-02-14T17:59:38.295Z,52.44
2019-02-14T18:02:05.301Z,52.57
2019-02-14T18:04:32.336Z,52.51
2019-02-14T18:06:59.176Z,52.45
2019-02-14T18:09:26.044Z,52.96
2019-02-14T18:11:55.063Z,53.21
2019-02-14T18:14:21.927Z,53.26
2019-02-14T18:16:48.828Z,53.49
2019-02-14T18:19:16.420Z,54.17
2019-02-14T18:21:46.379Z,54.73
2019-02-14T18:24:13.471Z,54.72
2019-02-14T18:26:40.375Z,54.74
2019-02-14T18:29:07.262Z,54.91
2019-02-14T18:31:34.129Z,55.06
2019-02-14T18:34:00.917Z,55.20
2019-02-14T18:36:27.878Z,55.00
2019-02-14T18:38:54.865Z,55.35
2019-02-14T18:41:21.634Z,55.50
2019-02-14T18:43:48.609Z,55.71
2019-02-14T18:46:15.504Z,55.40
2019-02-14T18:48:42.466Z,55.31
2019-02-14T18:51:09.350Z,55.29
2019-02-14T18:53:36.190Z,55.30
2019-02-14T18:56:02.944Z,55.61
2019-02-14T18:58:30.180Z,56.04
2019-02-14T19:00:57.289Z,56.43
2019-02-14T19:03:24.323Z,57.06
2019-02-14T19:05:51.218Z,56.92
2019-02-14T19:08:18.573Z,56.88
2019-02-14T19:10:45.420Z,56.90
2019-02-14T19:13:12.347Z,56.86
2019-02-14T19:15:39.383Z,56.83
2019-02-14T19:18:06.816Z,56.84
2019-02-14T19:20:33.811Z,57.54
2019-02-14T19:23:00.783Z,57.91
2019-02-14T19:25:29.561Z,58.35
2019-02-14T19:27:56.316Z,58.37
2019-02-14T19:30:23.332Z,58.21
2019-02-14T19:32:50.321Z,58.41
2019-02-14T19:35:23.223Z,58.21
2019-02-14T19:37:45.957Z,58.51
2019-02-14T19:40:12.831Z,59.04
2019-02-14T19:42:41.983Z,59.44
2019-02-14T19:45:08.871Z,59.70
2019-02-14T19:47:35.948Z,60.31
2019-02-14T19:50:05.359Z,59.99
2019-02-14T19:52:33.377Z,59.09
2019-02-14T19:55:00.343Z,58.71
2019-02-14T19:57:27.417Z,59.44
2019-02-14T19:59:54.455Z,58.94
2019-02-14T20:02:21.322Z,58.24
2019-02-14T20:04:48.118Z,58.03
2019-02-14T20:07:15.040Z,58.51
2019-02-14T20:09:42.014Z,58.93
2019-02-14T20:12:08.884Z,59.35
2019-02-14T20:14:35.788Z,59.45
2019-02-14T20:17:03.159Z,59.15
2019-02-14T20:19:30.025Z,59.36
2019-02-14T20:21:56.885Z,59.55
2019-02-14T20:24:23.743Z,59.93
2019-02-14T20:26:50.692Z,61.07
2019-02-14T20:29:17.466Z,62.51
2019-02-14T20:31:47.255Z,62.88
2019-02-14T20:34:14.248Z,62.89
2019-02-14T20:36:41.104Z,62.96
2019-02-14T20:39:08.129Z,63.07
2019-02-14T20:41:35.292Z,62.99
2019-02-14T20:44:02.340Z,62.80
2019-02-14T20:46:29.192Z,62.81
2019-02-14T20:48:56.157Z,62.14
2019-02-14T20:51:23.087Z,61.62
2019-02-14T20:53:50.077Z,61.25
2019-02-14T20:56:17.090Z,60.97
2019-02-14T20:58:44.067Z,61.38
2019-02-14T21:01:11.020Z,61.22
2019-02-14T21:03:38.393Z,61.09
2019-02-14T21:06:05.454Z,60.97
2019-02-14T21:08:32.384Z,60.74
2019-02-14T21:10:59.342Z,60.77
2019-02-14T21:13:29.033Z,61.02
2019-02-14T21:15:58.173Z,61.35
2019-02-14T21:18:25.039Z,61.19
2019-02-14T21:20:51.949Z,60.98
2019-02-14T21:23:18.818Z,60.87
2019-02-14T21:25:45.781Z,60.77
2019-02-14T21:28:12.750Z,61.07
2019-02-14T21:30:39.716Z,61.21
2019-02-14T21:33:06.623Z,61.42
2019-02-14T21:35:33.738Z,61.65
2019-02-14T21:38:00.602Z,61.55
2019-02-14T21:40:27.630Z,61.53
2019-02-14T21:42:54.685Z,61.33
2019-02-14T21:45:21.546Z,60.90
2019-02-14T21:47:48.320Z,60.87
2019-02-14T21:50:15.516Z,60.94
2019-02-14T21:52:42.563Z,61.13
2019-02-14T21:55:09.340Z,61.05
2019-02-14T21:57:36.343Z,61.00
2019-02-14T22:00:04.236Z,60.89
2019-02-14T22:02:31.550Z,60.67
2019-02-14T22:04:58.467Z,60.61
2019-02-14T22:07:25.434Z,60.51
2019-02-14T22:09:52.332Z,60.69
2019-02-14T22:12:38.347Z,60.95
2019-02-14T22:14:48.089Z,60.72
2019-02-14T22:17:14.841Z,60.99
2019-02-14T22:19:42.977Z,60.92
2019-02-14T22:22:10.054Z,60.77
2019-02-14T22:24:36.796Z,60.57
2019-02-14T22:27:03.809Z,60.36
2019-02-14T22:29:30.920Z,60.31
2019-02-14T22:31:57.904Z,60.22
2019-02-14T22:34:24.693Z,60.23
2019-02-14T22:36:51.446Z,60.13
2019-02-14T22:39:18.313Z,60.27
2019-02-14T22:41:45.305Z,60.01
2019-02-14T22:44:12.198Z,60.02
2019-02-14T22:46:39.096Z,61.06
2019-02-14T22:49:06.114Z,61.93
2019-02-14T22:51:33.019Z,63.35
2019-02-14T22:53:59.760Z,63.97
2019-02-14T22:56:26.669Z,65.68
2019-02-14T22:58:53.639Z,64.68
2019-02-14T23:01:20.651Z,64.02
2019-02-14T23:03:47.636Z,62.68
2019-02-14T23:06:14.508Z,61.61
2019-02-14T23:08:41.262Z,61.69
2019-02-14T23:11:08.162Z,61.75
2019-02-14T23:13:35.147Z,61.67
2019-02-14T23:16:02.137Z,61.25
2019-02-14T23:18:28.932Z,61.22
2019-02-14T23:20:55.799Z,61.18
2019-02-14T23:23:22.696Z,61.91
2019-02-14T23:25:49.623Z,62.38
2019-02-14T23:28:16.766Z,62.13
2019-02-14T23:30:43.627Z,61.70
2019-02-14T23:33:10.400Z,62.44
2019-02-14T23:35:39.213Z,62.36
2019-02-14T23:38:05.980Z,62.74
2019-02-14T23:40:32.877Z,62.64
2019-02-14T23:43:04.732Z,62.23
2019-02-14T23:45:28.374Z,62.50
2019-02-14T23:47:55.262Z,63.27
2019-02-14T23:50:22.006Z,63.65
2019-02-14T23:52:48.880Z,64.35
2019-02-14T23:55:15.756Z,64.42
2019-02-14T23:57:42.748Z,64.29
